sensor_id;sensor_type;location;lat;lon;timestamp;P1;durP1;ratioP1;P2;durP2;ratioP2
19406;SDS011;9839;53.364;-1.204;2023-07-24T00:01:28;3.60;;;2.20;;
19406;SDS011;9839;53.364;-1.204;2023-07-24T00:03:53;6.70;;;2.07;;
19406;SDS011;9839;53.364;-1.204;2023-07-24T00:06:21;2.93;;;1.70;;
19406;SDS011;9839;53.364;-1.204;2023-07-24T00:08:46;5.90;;;1.80;;
19406;SDS011;9839;53.364;-1.204;2023-07-24T00:11:12;2.70;;;1.80;;
19406;SDS011;9839;53.364;-1.204;2023-07-24T00:13:37;3.27;;;2.00;;
19406;SDS011;9839;53.364;-1.204;2023-07-24T00:16:06;4.13;;;1.73;;
19406;SDS011;9839;53.364;-1.204;2023-07-24T00:18:32;5.53;;;1.70;;
19406;SDS011;9839;53.364;-1.204;2023-07-24T00:20:58;2.70;;;2.00;;
19406;SDS011;9839;53.364;-1.204;2023-07-24T00:23:23;5.10;;;1.90;;
19406;SDS011;9839;53.364;-1.204;2023-07-24T00:25:48;3.83;;;1.70;;
19406;SDS011;9839;53.364;-1.204;2023-07-24T00:28:14;5.77;;;2.20;;
19406;SDS011;9839;53.364;-1.204;2023-07-24T00:30:39;3.03;;;1.93;;
19406;SDS011;9839;53.364;-1.204;2023-07-24T00:33:04;2.03;;;1.63;;
19406;SDS011;9839;53.364;-1.204;2023-07-24T00:35:30;3.63;;;2.30;;
19406;SDS011;9839;53.364;-1.204;2023-07-24T00:37:55;7.27;;;2.33;;
19406;SDS011;9839;53.364;-1.204;2023-07-24T00:40:20;5.00;;;2.43;;
19406;SDS011;9839;53.364;-1.204;2023-07-24T00:42:46;3.10;;;2.10;;
19406;SDS011;9839;53.364;-1.204;2023-07-24T00:45:13;6.40;;;2.53;;
19406;SDS011;9839;53.364;-1.204;2023-07-24T00:47:38;7.67;;;2.63;;
19406;SDS011;9839;53.364;-1.204;2023-07-24T00:50:04;5.67;;;2.80;;
19406;SDS011;9839;53.364;-1.204;2023-07-24T00:52:30;5.37;;;2.60;;
19406;SDS011;9839;53.364;-1.204;2023-07-24T00:54:55;5.73;;;2.50;;
19406;SDS011;9839;53.364;-1.204;2023-07-24T00:57:21;4.60;;;2.40;;
19406;SDS011;9839;53.364;-1.204;2023-07-24T00:59:47;5.17;;;2.73;;
19406;SDS011;9839;53.364;-1.204;2023-07-24T01:02:13;3.67;;;2.23;;
19406;SDS011;9839;53.364;-1.204;2023-07-24T01:04:39;6.30;;;2.90;;
19406;SDS011;9839;53.364;-1.204;2023-07-24T01:07:05;5.23;;;2.37;;
19406;SDS011;9839;53.364;-1.204;2023-07-24T01:09:30;4.63;;;2.53;;
19406;SDS011;9839;53.364;-1.204;2023-07-24T01:12:02;8.27;;;2.63;;
19406;SDS011;9839;53.364;-1.204;2023-07-24T01:14:46;4.20;;;1.97;;
19406;SDS011;9839;53.364;-1.204;2023-07-24T01:17:20;3.47;;;2.30;;
19406;SDS011;9839;53.364;-1.204;2023-07-24T01:19:49;7.13;;;2.83;;
19406;SDS011;9839;53.364;-1.204;2023-07-24T01:27:31;5.07;;;2.57;;
19406;SDS011;9839;53.364;-1.204;2023-07-24T01:29:56;9.77;;;2.43;;
19406;SDS011;9839;53.364;-1.204;2023-07-24T01:32:22;5.63;;;2.57;;
19406;SDS011;9839;53.364;-1.204;2023-07-24T01:34:47;8.23;;;2.70;;
19406;SDS011;9839;53.364;-1.204;2023-07-24T01:37:13;5.53;;;2.87;;
19406;SDS011;9839;53.364;-1.204;2023-07-24T01:39:41;6.53;;;3.20;;
19406;SDS011;9839;53.364;-1.204;2023-07-24T01:42:09;8.43;;;2.40;;
19406;SDS011;9839;53.364;-1.204;2023-07-24T01:44:35;5.90;;;2.40;;
19406;SDS011;9839;53.364;-1.204;2023-07-24T01:47:00;8.10;;;2.87;;
19406;SDS011;9839;53.364;-1.204;2023-07-24T01:49:25;8.90;;;2.13;;
19406;SDS011;9839;53.364;-1.204;2023-07-24T01:51:50;7.70;;;2.30;;
19406;SDS011;9839;53.364;-1.204;2023-07-24T01:54:16;5.00;;;2.63;;
19406;SDS011;9839;53.364;-1.204;2023-07-24T01:56:41;5.77;;;2.97;;
19406;SDS011;9839;53.364;-1.204;2023-07-24T01:59:07;4.10;;;2.40;;
19406;SDS011;9839;53.364;-1.204;2023-07-24T02:01:32;5.23;;;2.40;;
19406;SDS011;9839;53.364;-1.204;2023-07-24T02:03:57;6.30;;;2.60;;
19406;SDS011;9839;53.364;-1.204;2023-07-24T02:06:23;8.43;;;2.63;;
19406;SDS011;9839;53.364;-1.204;2023-07-24T02:08:48;6.20;;;2.13;;
19406;SDS011;9839;53.364;-1.204;2023-07-24T02:11:16;6.17;;;2.90;;
19406;SDS011;9839;53.364;-1.204;2023-07-24T02:13:43;4.90;;;2.87;;
19406;SDS011;9839;53.364;-1.204;2023-07-24T02:16:09;5.57;;;2.33;;
19406;SDS011;9839;53.364;-1.204;2023-07-24T02:18:34;4.77;;;2.30;;
19406;SDS011;9839;53.364;-1.204;2023-07-24T02:21:00;9.40;;;3.00;;
19406;SDS011;9839;53.364;-1.204;2023-07-24T02:23:25;4.07;;;2.50;;
19406;SDS011;9839;53.364;-1.204;2023-07-24T02:25:51;3.73;;;2.43;;
19406;SDS011;9839;53.364;-1.204;2023-07-24T02:28:17;6.37;;;2.57;;
19406;SDS011;9839;53.364;-1.204;2023-07-24T02:30:42;3.58;;;2.38;;
19406;SDS011;9839;53.364;-1.204;2023-07-24T02:33:08;4.67;;;2.37;;
19406;SDS011;9839;53.364;-1.204;2023-07-24T02:35:42;5.53;;;2.57;;
19406;SDS011;9839;53.364;-1.204;2023-07-24T02:38:08;5.73;;;2.57;;
19406;SDS011;9839;53.364;-1.204;2023-07-24T02:40:33;5.60;;;2.80;;
19406;SDS011;9839;53.364;-1.204;2023-07-24T02:42:59;5.43;;;2.80;;
19406;SDS011;9839;53.364;-1.204;2023-07-24T02:45:24;6.38;;;2.63;;
19406;SDS011;9839;53.364;-1.204;2023-07-24T02:47:49;5.73;;;2.93;;
19406;SDS011;9839;53.364;-1.204;2023-07-24T02:50:15;4.33;;;2.87;;
19406;SDS011;9839;53.364;-1.204;2023-07-24T02:52:40;7.03;;;2.53;;
19406;SDS011;9839;53.364;-1.204;2023-07-24T02:55:05;9.73;;;3.03;;
19406;SDS011;9839;53.364;-1.204;2023-07-24T02:57:31;6.87;;;2.20;;
19406;SDS011;9839;53.364;-1.204;2023-07-24T02:59:56;5.20;;;3.00;;
19406;SDS011;9839;53.364;-1.204;2023-07-24T03:02:22;6.40;;;2.40;;
19406;SDS011;9839;53.364;-1.204;2023-07-24T03:04:47;8.67;;;2.80;;
19406;SDS011;9839;53.364;-1.204;2023-07-24T03:07:13;4.63;;;2.67;;
19406;SDS011;9839;53.364;-1.204;2023-07-24T03:09:38;5.83;;;3.03;;
19406;SDS011;9839;53.364;-1.204;2023-07-24T03:12:03;4.37;;;2.43;;
19406;SDS011;9839;53.364;-1.204;2023-07-24T03:14:29;5.10;;;2.43;;
19406;SDS011;9839;53.364;-1.204;2023-07-24T03:16:54;8.10;;;3.30;;
19406;SDS011;9839;53.364;-1.204;2023-07-24T03:19:19;3.87;;;2.60;;
19406;SDS011;9839;53.364;-1.204;2023-07-24T03:21:45;6.77;;;2.70;;
19406;SDS011;9839;53.364;-1.204;2023-07-24T03:24:11;6.60;;;2.40;;
19406;SDS011;9839;53.364;-1.204;2023-07-24T03:26:36;5.67;;;2.53;;
19406;SDS011;9839;53.364;-1.204;2023-07-24T03:29:01;4.50;;;2.70;;
19406;SDS011;9839;53.364;-1.204;2023-07-24T03:31:27;3.17;;;2.23;;
19406;SDS011;9839;53.364;-1.204;2023-07-24T03:33:52;4.03;;;2.43;;
19406;SDS011;9839;53.364;-1.204;2023-07-24T03:36:17;4.07;;;2.33;;
19406;SDS011;9839;53.364;-1.204;2023-07-24T03:38:43;6.60;;;2.30;;
19406;SDS011;9839;53.364;-1.204;2023-07-24T03:41:08;7.20;;;3.00;;
19406;SDS011;9839;53.364;-1.204;2023-07-24T03:43:33;4.97;;;2.57;;
19406;SDS011;9839;53.364;-1.204;2023-07-24T03:45:59;3.97;;;2.13;;
19406;SDS011;9839;53.364;-1.204;2023-07-24T03:48:24;3.37;;;2.10;;
19406;SDS011;9839;53.364;-1.204;2023-07-24T03:50:50;4.73;;;2.27;;
19406;SDS011;9839;53.364;-1.204;2023-07-24T03:53:22;5.55;;;2.50;;
19406;SDS011;9839;53.364;-1.204;2023-07-24T03:55:47;6.07;;;2.33;;
19406;SDS011;9839;53.364;-1.204;2023-07-24T03:58:12;6.50;;;2.23;;
19406;SDS011;9839;53.364;-1.204;2023-07-24T04:00:38;3.53;;;2.33;;
19406;SDS011;9839;53.364;-1.204;2023-07-24T04:03:03;7.00;;;2.42;;
19406;SDS011;9839;53.364;-1.204;2023-07-24T04:05:28;7.03;;;2.55;;
19406;SDS011;9839;53.364;-1.204;2023-07-24T04:07:54;5.80;;;2.70;;
19406;SDS011;9839;53.364;-1.204;2023-07-24T04:10:20;5.33;;;2.80;;
19406;SDS011;9839;53.364;-1.204;2023-07-24T04:12:45;9.33;;;3.23;;
19406;SDS011;9839;53.364;-1.204;2023-07-24T04:15:10;7.30;;;3.37;;
19406;SDS011;9839;53.364;-1.204;2023-07-24T04:17:36;6.47;;;3.67;;
19406;SDS011;9839;53.364;-1.204;2023-07-24T04:20:03;8.87;;;3.60;;
19406;SDS011;9839;53.364;-1.204;2023-07-24T04:22:30;7.53;;;3.60;;
19406;SDS011;9839;53.364;-1.204;2023-07-24T04:24:55;8.00;;;4.13;;
19406;SDS011;9839;53.364;-1.204;2023-07-24T04:27:20;11.77;;;3.90;;
19406;SDS011;9839;53.364;-1.204;2023-07-24T04:29:46;8.20;;;4.30;;
19406;SDS011;9839;53.364;-1.204;2023-07-24T04:32:11;11.53;;;4.57;;
19406;SDS011;9839;53.364;-1.204;2023-07-24T04:34:36;9.73;;;4.00;;
19406;SDS011;9839;53.364;-1.204;2023-07-24T04:37:02;13.10;;;4.10;;
19406;SDS011;9839;53.364;-1.204;2023-07-24T04:39:28;12.63;;;4.20;;
19406;SDS011;9839;53.364;-1.204;2023-07-24T04:41:53;11.30;;;3.73;;
19406;SDS011;9839;53.364;-1.204;2023-07-24T04:44:18;15.60;;;4.13;;
19406;SDS011;9839;53.364;-1.204;2023-07-24T04:46:44;12.13;;;4.17;;
19406;SDS011;9839;53.364;-1.204;2023-07-24T04:49:09;10.00;;;3.67;;
19406;SDS011;9839;53.364;-1.204;2023-07-24T04:51:34;13.53;;;4.20;;
19406;SDS011;9839;53.364;-1.204;2023-07-24T04:54:00;17.93;;;4.87;;
19406;SDS011;9839;53.364;-1.204;2023-07-24T04:56:25;12.77;;;4.87;;
19406;SDS011;9839;53.364;-1.204;2023-07-24T04:58:50;20.40;;;4.70;;
19406;SDS011;9839;53.364;-1.204;2023-07-24T05:01:16;13.83;;;4.23;;
19406;SDS011;9839;53.364;-1.204;2023-07-24T05:03:41;16.23;;;4.43;;
19406;SDS011;9839;53.364;-1.204;2023-07-24T05:06:07;12.13;;;4.47;;
19406;SDS011;9839;53.364;-1.204;2023-07-24T05:08:32;13.73;;;3.83;;
19406;SDS011;9839;53.364;-1.204;2023-07-24T05:10:58;8.23;;;3.57;;
19406;SDS011;9839;53.364;-1.204;2023-07-24T05:13:24;14.77;;;4.53;;
19406;SDS011;9839;53.364;-1.204;2023-07-24T05:15:49;12.43;;;4.07;;
19406;SDS011;9839;53.364;-1.204;2023-07-24T05:18:15;17.07;;;4.67;;
19406;SDS011;9839;53.364;-1.204;2023-07-24T05:20:46;12.03;;;4.30;;
19406;SDS011;9839;53.364;-1.204;2023-07-24T05:23:13;12.60;;;4.63;;
19406;SDS011;9839;53.364;-1.204;2023-07-24T05:25:38;14.73;;;4.80;;
19406;SDS011;9839;53.364;-1.204;2023-07-24T05:28:03;13.30;;;4.10;;
19406;SDS011;9839;53.364;-1.204;2023-07-24T05:30:29;7.82;;;3.47;;
19406;SDS011;9839;53.364;-1.204;2023-07-24T05:32:54;20.02;;;4.28;;
19406;SDS011;9839;53.364;-1.204;2023-07-24T05:35:19;8.43;;;4.13;;
19406;SDS011;9839;53.364;-1.204;2023-07-24T05:37:45;16.00;;;4.50;;
19406;SDS011;9839;53.364;-1.204;2023-07-24T05:40:10;11.18;;;3.65;;
19406;SDS011;9839;53.364;-1.204;2023-07-24T05:42:36;9.13;;;4.15;;
19406;SDS011;9839;53.364;-1.204;2023-07-24T05:45:06;14.27;;;4.20;;
19406;SDS011;9839;53.364;-1.204;2023-07-24T05:47:32;10.30;;;3.90;;
19406;SDS011;9839;53.364;-1.204;2023-07-24T05:49:58;17.85;;;4.03;;
19406;SDS011;9839;53.364;-1.204;2023-07-24T05:52:23;13.82;;;3.58;;
19406;SDS011;9839;53.364;-1.204;2023-07-24T05:54:48;18.30;;;3.88;;
19406;SDS011;9839;53.364;-1.204;2023-07-24T05:57:14;14.52;;;3.60;;
19406;SDS011;9839;53.364;-1.204;2023-07-24T05:59:39;12.33;;;3.70;;
19406;SDS011;9839;53.364;-1.204;2023-07-24T06:02:05;14.43;;;3.65;;
19406;SDS011;9839;53.364;-1.204;2023-07-24T06:04:30;12.38;;;3.83;;
19406;SDS011;9839;53.364;-1.204;2023-07-24T06:06:56;5.93;;;3.08;;
19406;SDS011;9839;53.364;-1.204;2023-07-24T06:09:21;9.98;;;3.42;;
19406;SDS011;9839;53.364;-1.204;2023-07-24T06:11:47;10.27;;;3.17;;
19406;SDS011;9839;53.364;-1.204;2023-07-24T06:14:12;8.40;;;3.63;;
19406;SDS011;9839;53.364;-1.204;2023-07-24T06:16:37;13.93;;;3.50;;
19406;SDS011;9839;53.364;-1.204;2023-07-24T06:19:03;10.15;;;3.08;;
19406;SDS011;9839;53.364;-1.204;2023-07-24T06:21:28;13.45;;;3.28;;
19406;SDS011;9839;53.364;-1.204;2023-07-24T06:23:54;12.93;;;3.33;;
19406;SDS011;9839;53.364;-1.204;2023-07-24T06:26:19;12.05;;;3.10;;
19406;SDS011;9839;53.364;-1.204;2023-07-24T06:28:44;7.75;;;3.05;;
19406;SDS011;9839;53.364;-1.204;2023-07-24T06:31:10;6.73;;;2.47;;
19406;SDS011;9839;53.364;-1.204;2023-07-24T06:33:35;15.17;;;3.23;;
19406;SDS011;9839;53.364;-1.204;2023-07-24T06:36:00;12.43;;;2.60;;
19406;SDS011;9839;53.364;-1.204;2023-07-24T06:38:26;9.03;;;2.90;;
19406;SDS011;9839;53.364;-1.204;2023-07-24T06:40:51;5.90;;;2.67;;
19406;SDS011;9839;53.364;-1.204;2023-07-24T06:43:16;7.23;;;2.90;;
19406;SDS011;9839;53.364;-1.204;2023-07-24T06:45:42;13.67;;;3.03;;
19406;SDS011;9839;53.364;-1.204;2023-07-24T06:48:07;9.00;;;2.70;;
19406;SDS011;9839;53.364;-1.204;2023-07-24T06:50:32;11.43;;;2.93;;
19406;SDS011;9839;53.364;-1.204;2023-07-24T06:52:58;14.37;;;3.23;;
19406;SDS011;9839;53.364;-1.204;2023-07-24T06:55:23;15.73;;;3.10;;
19406;SDS011;9839;53.364;-1.204;2023-07-24T06:57:48;11.73;;;3.23;;
19406;SDS011;9839;53.364;-1.204;2023-07-24T07:00:14;11.10;;;2.97;;
19406;SDS011;9839;53.364;-1.204;2023-07-24T07:02:39;17.83;;;2.93;;
19406;SDS011;9839;53.364;-1.204;2023-07-24T07:05:05;10.27;;;3.00;;
19406;SDS011;9839;53.364;-1.204;2023-07-24T07:07:30;8.60;;;2.60;;
19406;SDS011;9839;53.364;-1.204;2023-07-24T07:09:56;13.00;;;2.53;;
19406;SDS011;9839;53.364;-1.204;2023-07-24T07:12:21;21.40;;;5.03;;
19406;SDS011;9839;53.364;-1.204;2023-07-24T07:14:46;6.37;;;2.23;;
19406;SDS011;9839;53.364;-1.204;2023-07-24T07:17:12;9.53;;;2.47;;
19406;SDS011;9839;53.364;-1.204;2023-07-24T07:19:37;9.47;;;2.57;;
19406;SDS011;9839;53.364;-1.204;2023-07-24T07:22:03;9.23;;;3.17;;
19406;SDS011;9839;53.364;-1.204;2023-07-24T07:24:28;9.13;;;2.87;;
19406;SDS011;9839;53.364;-1.204;2023-07-24T07:26:53;14.87;;;3.40;;
19406;SDS011;9839;53.364;-1.204;2023-07-24T07:29:19;8.23;;;2.47;;
19406;SDS011;9839;53.364;-1.204;2023-07-24T07:31:44;9.47;;;3.57;;
19406;SDS011;9839;53.364;-1.204;2023-07-24T07:34:10;11.82;;;3.17;;
19406;SDS011;9839;53.364;-1.204;2023-07-24T07:36:35;15.03;;;3.10;;
19406;SDS011;9839;53.364;-1.204;2023-07-24T07:39:00;15.90;;;2.90;;
19406;SDS011;9839;53.364;-1.204;2023-07-24T07:41:27;9.53;;;2.63;;
19406;SDS011;9839;53.364;-1.204;2023-07-24T07:43:53;8.70;;;3.03;;
19406;SDS011;9839;53.364;-1.204;2023-07-24T07:46:19;12.17;;;2.70;;
19406;SDS011;9839;53.364;-1.204;2023-07-24T07:48:44;11.13;;;2.77;;
19406;SDS011;9839;53.364;-1.204;2023-07-24T07:51:11;11.90;;;2.37;;
19406;SDS011;9839;53.364;-1.204;2023-07-24T07:53:37;10.67;;;2.57;;
19406;SDS011;9839;53.364;-1.204;2023-07-24T07:56:03;11.10;;;2.70;;
19406;SDS011;9839;53.364;-1.204;2023-07-24T07:58:29;10.15;;;2.75;;
19406;SDS011;9839;53.364;-1.204;2023-07-24T08:00:54;5.57;;;2.22;;
19406;SDS011;9839;53.364;-1.204;2023-07-24T08:03:20;8.07;;;2.63;;
19406;SDS011;9839;53.364;-1.204;2023-07-24T08:05:45;8.57;;;2.38;;
19406;SDS011;9839;53.364;-1.204;2023-07-24T08:08:11;6.78;;;2.80;;
19406;SDS011;9839;53.364;-1.204;2023-07-24T08:10:39;8.15;;;2.40;;
19406;SDS011;9839;53.364;-1.204;2023-07-24T08:13:05;7.45;;;2.40;;
19406;SDS011;9839;53.364;-1.204;2023-07-24T08:15:34;7.55;;;2.50;;
19406;SDS011;9839;53.364;-1.204;2023-07-24T08:18:00;6.25;;;2.53;;
19406;SDS011;9839;53.364;-1.204;2023-07-24T08:20:25;9.90;;;2.80;;
19406;SDS011;9839;53.364;-1.204;2023-07-24T08:22:50;8.75;;;2.65;;
19406;SDS011;9839;53.364;-1.204;2023-07-24T08:25:16;9.93;;;3.17;;
19406;SDS011;9839;53.364;-1.204;2023-07-24T08:27:42;10.25;;;2.80;;
19406;SDS011;9839;53.364;-1.204;2023-07-24T08:30:08;9.70;;;2.55;;
19406;SDS011;9839;53.364;-1.204;2023-07-24T08:32:33;7.93;;;2.67;;
19406;SDS011;9839;53.364;-1.204;2023-07-24T08:34:59;10.60;;;2.40;;
19406;SDS011;9839;53.364;-1.204;2023-07-24T08:37:24;7.28;;;2.60;;
19406;SDS011;9839;53.364;-1.204;2023-07-24T08:39:49;8.75;;;2.25;;
19406;SDS011;9839;53.364;-1.204;2023-07-24T08:42:15;6.03;;;2.70;;
19406;SDS011;9839;53.364;-1.204;2023-07-24T08:44:40;13.48;;;2.55;;
19406;SDS011;9839;53.364;-1.204;2023-07-24T08:47:09;13.02;;;2.88;;
19406;SDS011;9839;53.364;-1.204;2023-07-24T08:49:36;7.90;;;2.42;;
19406;SDS011;9839;53.364;-1.204;2023-07-24T08:52:02;5.03;;;1.75;;
19406;SDS011;9839;53.364;-1.204;2023-07-24T08:54:29;9.13;;;2.20;;
19406;SDS011;9839;53.364;-1.204;2023-07-24T08:56:55;11.20;;;2.08;;
19406;SDS011;9839;53.364;-1.204;2023-07-24T08:59:20;7.30;;;2.15;;
19406;SDS011;9839;53.364;-1.204;2023-07-24T09:01:46;9.55;;;2.60;;
19406;SDS011;9839;53.364;-1.204;2023-07-24T09:04:11;7.40;;;1.92;;
19406;SDS011;9839;53.364;-1.204;2023-07-24T09:06:37;8.27;;;2.20;;
19406;SDS011;9839;53.364;-1.204;2023-07-24T09:09:11;11.38;;;2.63;;
19406;SDS011;9839;53.364;-1.204;2023-07-24T09:11:45;6.25;;;1.95;;
19406;SDS011;9839;53.364;-1.204;2023-07-24T09:14:26;9.95;;;2.17;;
19406;SDS011;9839;53.364;-1.204;2023-07-24T09:17:04;5.82;;;2.05;;
19406;SDS011;9839;53.364;-1.204;2023-07-24T09:19:33;14.32;;;2.35;;
19406;SDS011;9839;53.364;-1.204;2023-07-24T09:22:12;11.45;;;2.50;;
19406;SDS011;9839;53.364;-1.204;2023-07-24T09:24:48;12.63;;;2.53;;
19406;SDS011;9839;53.364;-1.204;2023-07-24T09:27:17;8.13;;;2.53;;
19406;SDS011;9839;53.364;-1.204;2023-07-24T09:29:43;6.88;;;2.75;;
19406;SDS011;9839;53.364;-1.204;2023-07-24T09:32:18;6.63;;;2.05;;
19406;SDS011;9839;53.364;-1.204;2023-07-24T09:34:46;16.10;;;4.43;;
19406;SDS011;9839;53.364;-1.204;2023-07-24T09:37:22;7.32;;;2.42;;
19406;SDS011;9839;53.364;-1.204;2023-07-24T09:39:57;9.50;;;2.17;;
19406;SDS011;9839;53.364;-1.204;2023-07-24T09:42:29;7.40;;;1.98;;
19406;SDS011;9839;53.364;-1.204;2023-07-24T09:44:54;6.80;;;2.40;;
19406;SDS011;9839;53.364;-1.204;2023-07-24T09:47:20;7.05;;;1.65;;
19406;SDS011;9839;53.364;-1.204;2023-07-24T09:49:45;5.85;;;1.80;;
19406;SDS011;9839;53.364;-1.204;2023-07-24T09:52:11;5.80;;;1.90;;
19406;SDS011;9839;53.364;-1.204;2023-07-24T09:54:39;5.32;;;2.15;;
19406;SDS011;9839;53.364;-1.204;2023-07-24T09:57:11;6.45;;;2.15;;
19406;SDS011;9839;53.364;-1.204;2023-07-24T09:59:38;10.38;;;1.45;;
19406;SDS011;9839;53.364;-1.204;2023-07-24T10:02:04;6.90;;;1.90;;
19406;SDS011;9839;53.364;-1.204;2023-07-24T10:04:29;6.35;;;2.35;;
19406;SDS011;9839;53.364;-1.204;2023-07-24T10:06:57;13.77;;;1.92;;
19406;SDS011;9839;53.364;-1.204;2023-07-24T10:09:22;6.00;;;2.20;;
19406;SDS011;9839;53.364;-1.204;2023-07-24T10:11:49;10.38;;;2.10;;
19406;SDS011;9839;53.364;-1.204;2023-07-24T10:14:14;6.95;;;1.80;;
19406;SDS011;9839;53.364;-1.204;2023-07-24T10:16:40;6.60;;;1.77;;
19406;SDS011;9839;53.364;-1.204;2023-07-24T10:19:12;8.15;;;2.13;;
19406;SDS011;9839;53.364;-1.204;2023-07-24T10:21:43;4.90;;;1.70;;
19406;SDS011;9839;53.364;-1.204;2023-07-24T10:24:09;8.13;;;1.83;;
19406;SDS011;9839;53.364;-1.204;2023-07-24T10:26:35;8.45;;;1.80;;
19406;SDS011;9839;53.364;-1.204;2023-07-24T10:29:01;7.45;;;1.38;;
19406;SDS011;9839;53.364;-1.204;2023-07-24T10:31:26;11.65;;;2.30;;
19406;SDS011;9839;53.364;-1.204;2023-07-24T10:33:52;7.53;;;1.90;;
19406;SDS011;9839;53.364;-1.204;2023-07-24T10:36:18;4.85;;;1.73;;
19406;SDS011;9839;53.364;-1.204;2023-07-24T10:38:46;4.25;;;1.70;;
19406;SDS011;9839;53.364;-1.204;2023-07-24T10:41:12;7.32;;;2.00;;
19406;SDS011;9839;53.364;-1.204;2023-07-24T10:43:48;5.07;;;1.73;;
19406;SDS011;9839;53.364;-1.204;2023-07-24T10:46:15;3.67;;;1.27;;
19406;SDS011;9839;53.364;-1.204;2023-07-24T10:48:45;4.50;;;1.40;;
19406;SDS011;9839;53.364;-1.204;2023-07-24T10:51:12;7.97;;;1.90;;
19406;SDS011;9839;53.364;-1.204;2023-07-24T10:53:41;3.83;;;1.65;;
19406;SDS011;9839;53.364;-1.204;2023-07-24T10:56:09;5.57;;;1.42;;
19406;SDS011;9839;53.364;-1.204;2023-07-24T10:58:34;1.83;;;0.90;;
19406;SDS011;9839;53.364;-1.204;2023-07-24T11:01:02;5.50;;;1.23;;
19406;SDS011;9839;53.364;-1.204;2023-07-24T11:03:29;2.53;;;0.85;;
19406;SDS011;9839;53.364;-1.204;2023-07-24T11:05:56;4.93;;;1.13;;
19406;SDS011;9839;53.364;-1.204;2023-07-24T11:08:22;4.38;;;1.10;;
19406;SDS011;9839;53.364;-1.204;2023-07-24T11:10:48;3.67;;;1.08;;
19406;SDS011;9839;53.364;-1.204;2023-07-24T11:13:15;1.25;;;0.73;;
19406;SDS011;9839;53.364;-1.204;2023-07-24T11:15:41;5.57;;;1.15;;
19406;SDS011;9839;53.364;-1.204;2023-07-24T11:18:06;7.63;;;1.13;;
19406;SDS011;9839;53.364;-1.204;2023-07-24T11:20:33;2.25;;;0.90;;
19406;SDS011;9839;53.364;-1.204;2023-07-24T11:23:02;3.03;;;1.13;;
19406;SDS011;9839;53.364;-1.204;2023-07-24T11:25:27;2.50;;;1.08;;
19406;SDS011;9839;53.364;-1.204;2023-07-24T11:27:53;4.13;;;1.20;;
19406;SDS011;9839;53.364;-1.204;2023-07-24T11:30:19;2.15;;;0.93;;
19406;SDS011;9839;53.364;-1.204;2023-07-24T11:32:45;4.70;;;1.15;;
19406;SDS011;9839;53.364;-1.204;2023-07-24T11:35:11;4.60;;;1.15;;
19406;SDS011;9839;53.364;-1.204;2023-07-24T11:37:37;6.30;;;1.25;;
19406;SDS011;9839;53.364;-1.204;2023-07-24T11:40:03;4.07;;;1.50;;
19406;SDS011;9839;53.364;-1.204;2023-07-24T11:42:29;6.80;;;1.05;;
19406;SDS011;9839;53.364;-1.204;2023-07-24T11:44:55;5.00;;;1.52;;
19406;SDS011;9839;53.364;-1.204;2023-07-24T11:47:20;2.45;;;0.98;;
19406;SDS011;9839;53.364;-1.204;2023-07-24T11:49:59;6.57;;;1.25;;
19406;SDS011;9839;53.364;-1.204;2023-07-24T11:52:25;5.97;;;1.33;;
19406;SDS011;9839;53.364;-1.204;2023-07-24T11:54:57;6.15;;;1.20;;
19406;SDS011;9839;53.364;-1.204;2023-07-24T11:57:28;2.10;;;1.10;;
19406;SDS011;9839;53.364;-1.204;2023-07-24T11:59:54;2.55;;;0.98;;
19406;SDS011;9839;53.364;-1.204;2023-07-24T12:02:19;9.40;;;1.20;;
19406;SDS011;9839;53.364;-1.204;2023-07-24T12:04:44;4.55;;;1.20;;
19406;SDS011;9839;53.364;-1.204;2023-07-24T12:07:10;4.82;;;1.02;;
19406;SDS011;9839;53.364;-1.204;2023-07-24T12:09:35;3.80;;;1.30;;
19406;SDS011;9839;53.364;-1.204;2023-07-24T12:12:02;4.70;;;1.40;;
19406;SDS011;9839;53.364;-1.204;2023-07-24T12:14:29;7.28;;;1.40;;
19406;SDS011;9839;53.364;-1.204;2023-07-24T12:17:01;10.57;;;2.17;;
19406;SDS011;9839;53.364;-1.204;2023-07-24T12:19:27;5.30;;;1.45;;
19406;SDS011;9839;53.364;-1.204;2023-07-24T12:21:52;6.90;;;1.13;;
19406;SDS011;9839;53.364;-1.204;2023-07-24T12:24:17;4.10;;;1.10;;
19406;SDS011;9839;53.364;-1.204;2023-07-24T12:26:43;3.15;;;0.95;;
19406;SDS011;9839;53.364;-1.204;2023-07-24T12:29:08;4.63;;;1.10;;
19406;SDS011;9839;53.364;-1.204;2023-07-24T12:31:33;3.60;;;1.08;;
19406;SDS011;9839;53.364;-1.204;2023-07-24T12:33:59;5.78;;;1.33;;
19406;SDS011;9839;53.364;-1.204;2023-07-24T12:36:24;7.80;;;1.30;;
19406;SDS011;9839;53.364;-1.204;2023-07-24T12:38:49;4.68;;;0.93;;
19406;SDS011;9839;53.364;-1.204;2023-07-24T12:41:15;5.30;;;1.00;;
19406;SDS011;9839;53.364;-1.204;2023-07-24T12:43:40;4.40;;;1.10;;
19406;SDS011;9839;53.364;-1.204;2023-07-24T12:46:05;11.05;;;3.40;;
19406;SDS011;9839;53.364;-1.204;2023-07-24T12:48:31;4.32;;;0.77;;
19406;SDS011;9839;53.364;-1.204;2023-07-24T12:50:56;1.35;;;0.90;;
19406;SDS011;9839;53.364;-1.204;2023-07-24T12:53:22;3.45;;;0.98;;
19406;SDS011;9839;53.364;-1.204;2023-07-24T12:55:48;6.95;;;1.55;;
19406;SDS011;9839;53.364;-1.204;2023-07-24T12:58:13;4.43;;;1.05;;
19406;SDS011;9839;53.364;-1.204;2023-07-24T13:00:39;4.97;;;1.02;;
19406;SDS011;9839;53.364;-1.204;2023-07-24T13:03:04;3.47;;;1.40;;
19406;SDS011;9839;53.364;-1.204;2023-07-24T13:05:29;3.22;;;1.30;;
19406;SDS011;9839;53.364;-1.204;2023-07-24T13:07:55;3.33;;;0.90;;
19406;SDS011;9839;53.364;-1.204;2023-07-24T13:10:21;4.75;;;1.10;;
19406;SDS011;9839;53.364;-1.204;2023-07-24T13:12:46;4.63;;;1.00;;
19406;SDS011;9839;53.364;-1.204;2023-07-24T13:15:12;4.65;;;1.80;;
19406;SDS011;9839;53.364;-1.204;2023-07-24T13:17:37;3.50;;;0.95;;
19406;SDS011;9839;53.364;-1.204;2023-07-24T13:20:03;2.88;;;1.00;;
19406;SDS011;9839;53.364;-1.204;2023-07-24T13:22:28;3.63;;;1.20;;
19406;SDS011;9839;53.364;-1.204;2023-07-24T13:24:54;7.53;;;1.17;;
19406;SDS011;9839;53.364;-1.204;2023-07-24T13:27:19;3.58;;;1.20;;
19406;SDS011;9839;53.364;-1.204;2023-07-24T13:29:44;2.72;;;1.10;;
19406;SDS011;9839;53.364;-1.204;2023-07-24T13:32:10;3.63;;;1.00;;
19406;SDS011;9839;53.364;-1.204;2023-07-24T13:34:35;3.75;;;1.30;;
19406;SDS011;9839;53.364;-1.204;2023-07-24T13:37:00;7.38;;;1.08;;
19406;SDS011;9839;53.364;-1.204;2023-07-24T13:39:26;5.25;;;1.17;;
19406;SDS011;9839;53.364;-1.204;2023-07-24T13:41:53;2.97;;;1.00;;
19406;SDS011;9839;53.364;-1.204;2023-07-24T13:44:18;3.55;;;1.10;;
19406;SDS011;9839;53.364;-1.204;2023-07-24T13:46:44;5.35;;;1.05;;
19406;SDS011;9839;53.364;-1.204;2023-07-24T13:49:09;2.63;;;1.23;;
19406;SDS011;9839;53.364;-1.204;2023-07-24T13:51:35;3.55;;;1.10;;
19406;SDS011;9839;53.364;-1.204;2023-07-24T13:54:00;4.45;;;1.25;;
19406;SDS011;9839;53.364;-1.204;2023-07-24T13:56:26;6.30;;;1.20;;
19406;SDS011;9839;53.364;-1.204;2023-07-24T13:58:52;4.15;;;1.38;;
19406;SDS011;9839;53.364;-1.204;2023-07-24T14:01:18;3.92;;;1.45;;
19406;SDS011;9839;53.364;-1.204;2023-07-24T14:03:43;5.15;;;1.35;;
19406;SDS011;9839;53.364;-1.204;2023-07-24T14:06:08;2.58;;;1.20;;
19406;SDS011;9839;53.364;-1.204;2023-07-24T14:08:34;2.67;;;1.17;;
19406;SDS011;9839;53.364;-1.204;2023-07-24T14:10:59;3.13;;;1.10;;
19406;SDS011;9839;53.364;-1.204;2023-07-24T14:13:24;3.80;;;1.48;;
19406;SDS011;9839;53.364;-1.204;2023-07-24T14:15:50;5.93;;;1.30;;
19406;SDS011;9839;53.364;-1.204;2023-07-24T14:18:15;2.35;;;0.90;;
19406;SDS011;9839;53.364;-1.204;2023-07-24T14:20:41;3.08;;;0.90;;
19406;SDS011;9839;53.364;-1.204;2023-07-24T14:23:06;4.20;;;1.35;;
19406;SDS011;9839;53.364;-1.204;2023-07-24T14:25:33;6.03;;;1.40;;
19406;SDS011;9839;53.364;-1.204;2023-07-24T14:27:58;1.25;;;0.88;;
19406;SDS011;9839;53.364;-1.204;2023-07-24T14:30:23;4.28;;;1.05;;
19406;SDS011;9839;53.364;-1.204;2023-07-24T14:32:49;2.35;;;1.02;;
19406;SDS011;9839;53.364;-1.204;2023-07-24T14:35:15;3.78;;;1.00;;
19406;SDS011;9839;53.364;-1.204;2023-07-24T14:37:40;5.03;;;1.25;;
19406;SDS011;9839;53.364;-1.204;2023-07-24T14:40:05;2.85;;;0.80;;
19406;SDS011;9839;53.364;-1.204;2023-07-24T14:42:31;2.90;;;1.05;;
19406;SDS011;9839;53.364;-1.204;2023-07-24T14:44:57;1.85;;;0.88;;